Flight Track Log - Related Links

Times and Time Zones

All times are in EDT time to prevent confusion due to time zone crossing. See the RPA1631 flight status page for this flight to view local times or setup timezone preferences in your user account.

Time Position Orientation Groundspeed Altitude Reporting Facility
EDT Latitude Longitude Course Direction KTS MPH feet Rate Location/Type
Wed 09:10:47 AM 43.1769 -89.3903 270° West 189 217 3,000  Level Chicago Center
Wed 09:11:49 AM 43.1672 -89.4694 260° West 202 232 5,400 2,419 Climbing Chicago Center
Wed 09:12:51 AM 43.1672 -89.5647 270° West 240 276 8,000 2,613 Climbing Chicago Center
Wed 09:13:53 AM 43.1675 -89.6728 270° West 276 318 10,800 1,500 Climbing Chicago Center
Wed 09:14:55 AM 43.1661 -89.7881 269° West 300 345 11,100 1,065 Climbing Chicago Center
Wed 09:15:57 AM 43.1658 -89.9067 270° West 310 357 13,000 2,371 Climbing Chicago Center
Wed 09:16:00 AM 43.1334 -90.4035 270° West  Level FlightAware Approximate
Wed 09:16:59 AM 43.1647 -90.0506 269° West 323 372 16,000  Level Chicago Center
Wed 09:18:01 AM 43.1636 -90.1781 269° West 331 381 18,100 2,226 Climbing Chicago Center
Wed 09:19:03 AM 43.1617 -90.3072 269° West 336 387 20,600 2,032 Climbing Chicago Center
Wed 09:20:05 AM 43.1600 -90.4383 269° West 346 398 22,300 1,742 Climbing Chicago Center
Wed 09:21:07 AM 43.1592 -90.5717 270° West 354 407 24,200 1,692 Climbing Chicago Center
Wed 09:22:02 AM 43.1569 -90.7086 269° West 361 415 25,600 1,448 Climbing Minneapolis Center
Wed 09:23:03 AM 43.1561 -90.8514 270° West 373 429 27,000 1,279 Climbing Minneapolis Center
Wed 09:24:04 AM 43.1539 -90.9967 269° West 382 440 28,200 1,073 Climbing Minneapolis Center
Wed 09:25:06 AM 43.1519 -91.1453 269° West 391 450 29,200 1,073 Climbing Minneapolis Center
Wed 09:26:07 AM 43.1506 -91.2975 269° West 401 461 30,400 1,180 Climbing Minneapolis Center
Wed 09:27:08 AM 43.1478 -91.4814 269° West 407 468 31,600 780 Climbing Minneapolis Center
Wed 09:28:10 AM 43.1444 -91.6353 268° West 410 472 32,000 585 Climbing Minneapolis Center
Wed 09:29:11 AM 43.1394 -91.7956 268° West 424 488 32,800 844 Climbing Minneapolis Center
Wed 09:30:25 AM 43.1339 -91.9872 268° West 428 493 33,900 844 Climbing Minneapolis Center
Wed 09:31:26 AM 43.1308 -92.1128 268° West 422 486 34,700 984 Climbing Minneapolis Center
Wed 09:32:27 AM 43.1275 -92.2967 269° West 412 474 35,900 634 Climbing Minneapolis Center
Wed 09:33:29 AM 43.1203 -92.4811 267° West 410 472 36,000 49 Climbing Minneapolis Center
Wed 09:34:30 AM 43.1161 -92.6283 268° West 399 459 36,000  Level Minneapolis Center
Wed 09:35:31 AM 43.1128 -92.7747 268° West 392 451 36,000  Level Minneapolis Center
Wed 09:36:33 AM 43.1086 -92.9225 268° West 392 451 36,000  Level Minneapolis Center
Wed 09:37:34 AM 43.1033 -93.0686 267° West 390 449 36,000  Level Minneapolis Center
Wed 09:38:35 AM 43.0969 -93.2139 267° West 388 447 36,000  Level Minneapolis Center
Wed 09:39:37 AM 43.0872 -93.3903 266° West 390 449 36,000  Level Minneapolis Center
Wed 09:40:38 AM 43.0781 -93.5056 264° West 388 447 36,000  Level Minneapolis Center
Wed 09:41:39 AM 43.0614 -93.6811 263° West 391 450 36,000  Level Minneapolis Center
Wed 09:42:41 AM 43.0475 -93.8275 263° West 394 453 36,000  Level Minneapolis Center
Wed 09:43:42 AM 43.0336 -93.9722 263° West 390 449 36,000  Level Minneapolis Center
Wed 09:44:43 AM 43.0200 -94.1131 263° West 381 438 36,000  Level Minneapolis Center
Wed 09:45:45 AM 43.0056 -94.2536 262° West 377 434 36,000  Level Minneapolis Center
Wed 09:46:46 AM 42.9856 -94.4258 261° West 384 442 36,000  Level Minneapolis Center
Wed 09:47:48 AM 42.9733 -94.5675 263° West 382 440 36,000  Level Minneapolis Center
Wed 09:48:49 AM 42.9603 -94.7025 263° West 379 436 36,000  Level Minneapolis Center
Wed 09:49:51 AM 42.9450 -94.8450 262° West 380 437 36,000  Level Minneapolis Center
Wed 09:50:52 AM 42.9294 -94.9900 262° West 384 442 36,000  Level Minneapolis Center
Wed 09:51:53 AM 42.9111 -95.1600 262° West 380 437 36,000  Level Minneapolis Center
Wed 09:52:55 AM 42.8950 -95.3036 261° West 382 440 36,000  Level Minneapolis Center
Wed 09:53:56 AM 42.8792 -95.4472 261° West 383 441 36,000  Level Minneapolis Center
Wed 09:54:58 AM 42.8631 -95.5894 261° West 382 440 36,000  Level Minneapolis Center
Wed 09:55:59 AM 42.8475 -95.7306 261° West 378 435 36,000  Level Minneapolis Center
Wed 09:57:01 AM 42.8319 -95.8700 261° West 374 430 36,000  Level Minneapolis Center
Wed 09:58:02 AM 42.8153 -96.0075 261° West 370 426 36,000  Level Minneapolis Center
Wed 09:59:03 AM 42.7986 -96.1467 261° West 372 428 36,000  Level Minneapolis Center
Wed 10:00:05 AM 42.7819 -96.2864 261° West 374 430 36,000  Level Minneapolis Center
Wed 10:01:06 AM 42.7622 -96.4550 261° West 376 433 36,000  Level Minneapolis Center
Wed 10:02:08 AM 42.7456 -96.5978 261° West 380 437 36,000  Level Minneapolis Center
Wed 10:03:09 AM 42.7289 -96.7342 261° West 370 426 36,000  Level Minneapolis Center
Wed 10:04:10 AM 42.7125 -96.8664 260° West 359 413 36,000  Level Minneapolis Center
Wed 10:05:12 AM 42.6950 -97.0000 260° West 359 413 36,000  Level Minneapolis Center
Wed 10:06:13 AM 42.6789 -97.1286 260° West 360 414 36,000  Level Minneapolis Center
Wed 10:07:15 AM 42.6628 -97.2597 261° West 354 407 36,000  Level Minneapolis Center
Wed 10:08:16 AM 42.6456 -97.3914 260° West 356 410 36,000  Level Minneapolis Center
Wed 10:09:17 AM 42.6244 -97.5494 260° West 355 409 36,000  Level Minneapolis Center
Wed 10:10:19 AM 42.6081 -97.6819 261° West 356 410 36,000  Level Minneapolis Center
Wed 10:11:20 AM 42.5900 -97.8114 259° West 353 406 36,000  Level Minneapolis Center
Wed 10:12:21 AM 42.5742 -97.9294 260° West 354 407 36,000  Level Minneapolis Center
Wed 10:13:23 AM 42.5533 -98.0856 260° West 353 406 36,000  Level Minneapolis Center
Wed 10:14:24 AM 42.5361 -98.2150 260° West 350 403 36,000  Level Minneapolis Center
Wed 10:15:26 AM 42.5181 -98.3447 259° West 351 404 36,000  Level Minneapolis Center
Wed 10:16:27 AM 42.5003 -98.4739 259° West 351 404 36,000  Level Minneapolis Center
Wed 10:17:29 AM 42.4814 -98.6031 259° West 351 404 36,000  Level Minneapolis Center
Wed 10:18:30 AM 42.4531 -98.7272 253° West 347 399 36,000  Level Minneapolis Center
Wed 10:19:32 AM 42.4056 -98.8339 239° Southwest 333 383 36,000  Level Minneapolis Center
Wed 10:20:33 AM 42.3561 -98.9417 238° Southwest 336 387 36,000  Level Minneapolis Center
Wed 10:21:35 AM 42.3089 -99.0486 239° Southwest 333 383 36,000  Level Minneapolis Center
Wed 10:22:36 AM 42.2506 -99.1775 239° Southwest 334 384 36,000  Level Minneapolis Center
Wed 10:23:38 AM 42.2022 -99.2847 239° Southwest 336 387 36,000  Level Minneapolis Center
Wed 10:24:39 AM 42.1533 -99.3914 238° Southwest 335 386 36,000  Level Minneapolis Center
Wed 10:25:41 AM 42.1050 -99.4978 239° Southwest 335 386 36,000  Level Minneapolis Center
Wed 10:26:42 AM 42.0556 -99.6039 238° Southwest 336 387 36,000  Level Minneapolis Center
Wed 10:27:47 AM 42.0042 -99.7147 238° Southwest 333 383 36,000  Level Denver Center
Wed 10:28:48 AM 41.9497 -99.8336 238° Southwest 334 384 36,000  Level Denver Center
Wed 10:29:50 AM 41.9033 -99.9353 239° Southwest 334 384 36,000  Level Denver Center
Wed 10:30:51 AM 41.8489 -100.0519 238° Southwest 333 383 36,000  Level Denver Center
Wed 10:31:53 AM 41.8036 -100.1483 238° Southwest 322 371 36,000  Level Denver Center
Wed 10:32:55 AM 41.7569 -100.2489 238° Southwest 329 379 36,000  Level Denver Center
Wed 10:33:56 AM 41.7033 -100.3631 238° Southwest 327 376 36,000  Level Denver Center
Wed 10:34:58 AM 41.6569 -100.4622 238° Southwest 327 376 36,000  Level Denver Center
Wed 10:36:00 AM 41.6031 -100.5753 238° Southwest 326 375 36,000  Level Denver Center
Wed 10:37:14 AM 41.5467 -100.7092 241° Southwest 327 376 36,000  Level Denver Center
Wed 10:38:16 AM 41.5119 -100.8139 246° West 323 372 36,000  Level Denver Center
Wed 10:39:17 AM 41.4767 -100.9169 245° Southwest 320 368 36,000  Level Denver Center
Wed 10:40:19 AM 41.4356 -101.0381 246° West 323 372 36,000  Level Denver Center
Wed 10:41:21 AM 41.4000 -101.1408 245° Southwest 322 371 36,000  Level Denver Center
Wed 10:42:23 AM 41.3572 -101.2622 245° Southwest 326 375 36,000  Level Denver Center
Wed 10:43:25 AM 41.3217 -101.3656 245° Southwest 324 373 36,000  Level Denver Center
Wed 10:44:27 AM 41.2803 -101.4847 245° Southwest 320 368 36,000  Level Denver Center
Wed 10:45:29 AM 41.2442 -101.5869 245° Southwest 321 369 36,000  Level Denver Center
Wed 10:46:30 AM 41.2022 -101.7069 245° Southwest 321 369 36,000  Level Denver Center
Wed 10:47:32 AM 41.1664 -101.8086 245° Southwest 319 367 36,000  Level Denver Center
Wed 10:48:34 AM 41.1231 -101.9283 244° Southwest 321 369 36,000  Level Denver Center
Wed 10:49:36 AM 41.0861 -102.0319 245° Southwest 325 374 36,000  Level Denver Center
Wed 10:50:38 AM 41.0419 -102.1542 244° Southwest 330 380 36,000  Level Denver Center
Wed 10:51:40 AM 41.0042 -102.2597 245° Southwest 333 383 36,000  Level Denver Center
Wed 10:52:42 AM 40.9606 -102.3825 245° Southwest 331 381 36,000  Level Denver Center
Wed 10:53:44 AM 40.9219 -102.4875 244° Southwest 331 381 36,000  Level Denver Center
Wed 10:54:46 AM 40.8836 -102.5925 244° Southwest 334 384 36,000  Level Denver Center
Wed 10:55:48 AM 40.8381 -102.7153 244° Southwest 334 384 36,000 -242 Level Denver Center
Wed 10:56:50 AM 40.8003 -102.8197 244° Southwest 332 382 35,500 -774 Descending Denver Center
Wed 10:57:52 AM 40.7542 -102.9422 244° Southwest 332 382 34,400 -1,016 Descending Denver Center
Wed 10:58:54 AM 40.7108 -103.0631 245° Southwest 336 387 33,400 -1,016 Descending Denver Center
Wed 10:59:56 AM 40.6581 -103.1644 236° Southwest 335 386 32,300 -1,016 Descending Denver Center
Wed 11:00:58 AM 40.5875 -103.2294 215° Southwest 308 354 31,300 -968 Descending Denver Center
Wed 11:02:00 AM 40.5272 -103.2978 221° Southwest 289 333 30,300 -1,016 Descending Denver Center
Wed 11:03:02 AM 40.5050 -103.4033 255° West 294 338 29,200 -1,306 Descending Denver Center
Wed 11:04:04 AM 40.4794 -103.5100 253° West 302 348 27,600 -1,597 Descending Denver Center
Wed 11:05:06 AM 40.4528 -103.6175 252° West 307 353 25,900 -1,597 Descending Denver Center
Wed 11:06:08 AM 40.4256 -103.7272 252° West 313 360 24,300 -1,742 Descending Denver Center
Wed 11:07:10 AM 40.3956 -103.8539 253° West 314 361 22,300 -1,694 Descending Denver Center
Wed 11:08:12 AM 40.3694 -103.9575 252° West 294 338 20,800 -1,355 Descending Denver Center
Wed 11:09:14 AM 40.3217 -104.0456 235° Southwest 287 330 19,500 -1,065 Descending Denver Center
Wed 11:10:16 AM 40.2592 -104.1111 219° Southwest 287 330 18,600 -823 Descending Denver Center
Wed 11:11:18 AM 40.1964 -104.1808 220° Southwest 293 337 17,800 -871 Descending Denver Center
Wed 11:12:20 AM 40.1294 -104.2525 219° Southwest 289 333 16,800 -960 Descending Denver Center
Wed 11:13:23 AM 40.0700 -104.3161 219° Southwest 276 318 15,800 -960 Descending Denver Center
Wed 11:14:25 AM 40.0094 -104.3822 220° Southwest 266 306 14,800 -950 Descending Denver Center
Wed 11:15:04 AM 39.9667 -104.4167 212° Southwest 274 315 14,200 -1,091 Descending Denver TRACON
Wed 11:16:04 AM 39.9167 -104.4833 226° Southwest 271 312 13,000 -1,200 Descending Denver TRACON
Wed 11:17:04 AM 39.8500 -104.5000 191° South 258 297 11,800 -1,172 Descending Denver TRACON
Wed 11:17:31 AM 39.8136 -104.5011 181° South 248 285 11,300 -1,011 Descending Denver Center
Wed 11:18:33 AM 39.7472 -104.5028 181° South 238 274 10,300 -968 Descending Denver Center
Wed 11:19:35 AM 39.6769 -104.5033 180° South 231 266 9,300 -629 Descending Denver Center
Wed 11:20:37 AM 39.6111 -104.5039 180° South 235 270 9,000 -145 Descending Denver Center
Wed 11:21:39 AM 39.5461 -104.5061 182° South 235 270 9,000 -339 Level Denver Center
Wed 11:22:41 AM 39.5133 -104.5711 237° Southwest 242 278 8,300 -484 Descending Denver Center
Wed 11:23:43 AM 39.5383 -104.6394 295° West 217 250 8,000 -145 Descending Denver Center
Wed 11:24:45 AM 39.5947 -104.6444 356° North 186 214 8,000  Level Denver Center
Wed 11:25:47 AM 39.6478 -104.6444 360° North 189 217 8,000  Level Denver Center
Wed 11:26:49 AM 39.7006 -104.6433 North 191 220 8,000 -484 Level Denver Center
Wed 11:27:51 AM 39.7508 -104.6428 360° North 170 196 7,000 -871 Descending Denver Center
Wed 11:28:53 AM 39.7944 -104.6422 North 157 181 6,200 -823 Descending Denver Center
Wed 11:29:55 AM 39.8400 -104.6414 North 153 176 5,300 -871 Descending Denver Center
Wed 11:31:00 AM 39.8500 -104.6667 339° North  Level FlightAware Approximate
Wed 11:38:00 AM 39.8617 -104.6732 339° North  Level Estimated
Wed 11:39:00 AM 39.8617 -104.6732 339° North  Level Estimated
Wed 11:40:00 AM 39.8617 -104.6732 339° North  Level Estimated

Login

Don't have an account? Register now (free) for customized features, flight alerts, and more!